Time;durP1;ratioP1;P1;durP2;ratioP2;P2;SDS_P1;SDS_P2;PMS_P1;PMS_P2;Temp;Humidity;BMP_temperature;BMP_pressure;BME280_temperature;BME280_humidity;BME280_pressure;Samples;Min_cycle;Max_cycle;Signal;HPM_P1;HPM_P2
2022/06/16 00:00:54;;;;;;;4.67;2.93;;;19.50;99.90;;;;;;20981278;28;20563;-82
2022/06/16 00:21:16;;;;;;;5.82;3.00;;;19.10;99.90;;;;;;21010324;28;20451;-83
2022/06/16 00:31:19;;;;;;;7.32;3.15;;;19.10;99.90;;;;;;21009438;28;20070;-84
2022/06/16 00:41:20;;;;;;;5.60;3.25;;;19.60;99.90;;;;;;21009182;28;20044;-83
2022/06/16 00:51:30;;;;;;;6.70;3.17;;;19.70;99.90;;;;;;21007726;28;20048;-84
2022/06/16 01:01:33;;;;;;;9.18;3.17;;;19.70;99.90;;;;;;21007299;28;20044;-84
2022/06/16 01:22:33;;;;;;;10.57;3.72;;;19.20;99.90;;;;;;21007662;28;20045;-81
2022/06/16 01:32:40;;;;;;;16.20;4.40;;;19.50;99.90;;;;;;20992272;28;20094;-84
2022/06/16 01:42:54;;;;;;;14.88;5.35;;;18.60;99.90;;;;;;21014987;28;20040;-84
2022/06/16 01:53:03;;;;;;;12.00;5.15;;;18.50;99.90;;;;;;21003001;28;20128;-81
2022/06/16 02:03:29;;;;;;;12.88;6.32;;;17.80;99.90;;;;;;20963489;28;20555;-82
2022/06/16 02:13:35;;;;;;;13.27;6.43;;;17.50;99.90;;;;;;20976705;28;20036;-83
2022/06/16 02:23:37;;;;;;;9.40;5.95;;;17.90;99.90;;;;;;20960603;28;20033;-82
2022/06/16 02:33:50;;;;;;;12.30;5.63;;;17.90;99.90;;;;;;21011041;28;20037;-82
2022/06/16 02:44:19;;;;;;;8.10;5.07;;;17.90;99.90;;;;;;21010579;28;20044;-82
2022/06/16 02:54:40;;;;;;;8.23;5.22;;;17.50;99.90;;;;;;20992654;28;20531;-81
2022/06/16 03:04:46;;;;;;;7.47;5.65;;;17.60;99.90;;;;;;20991687;28;20033;-82
2022/06/16 03:14:47;;;;;;;12.55;6.25;;;17.40;99.90;;;;;;20975385;28;20032;-83
2022/06/16 03:24:47;;;;;;;10.33;5.13;;;17.60;99.90;;;;;;20991485;28;20045;-82
2022/06/16 03:34:48;;;;;;;10.07;5.03;;;17.80;99.90;;;;;;20976387;28;20443;-82
2022/06/16 03:44:53;;;;;;;10.68;4.90;;;17.90;99.90;;;;;;21024726;28;20036;-83
2022/06/16 03:54:54;;;;;;;14.70;5.77;;;17.80;99.90;;;;;;20990227;28;20101;-82
2022/06/16 04:04:55;;;;;;;11.80;5.77;;;16.90;99.90;;;;;;21022861;28;20044;-82
2022/06/16 04:14:56;;;;;;;7.43;5.50;;;16.80;99.90;;;;;;21022792;28;20060;-84
2022/06/16 04:24:57;;;;;;;9.98;6.18;;;17.00;99.90;;;;;;21005583;28;20086;-83
2022/06/16 04:34:58;;;;;;;10.93;5.70;;;17.50;99.90;;;;;;21003938;28;20036;-83
2022/06/16 04:45:04;;;;;;;12.00;6.07;;;17.70;99.90;;;;;;20985899;28;20683;-83
2022/06/16 04:55:06;;;;;;;11.77;6.30;;;18.00;99.90;;;;;;20982359;28;20128;-81
2022/06/16 05:05:36;;;;;;;15.77;7.57;;;18.20;99.90;;;;;;20930270;28;20050;-81
2022/06/16 05:15:57;;;;;;;9.57;4.95;;;18.00;99.90;;;;;;20987165;28;20041;-82
2022/06/16 05:26:15;;;;;;;9.05;5.38;;;18.80;99.90;;;;;;20981067;28;20068;-84
2022/06/16 05:36:39;;;;;;;9.80;4.70;;;19.40;99.90;;;;;;20965090;28;20493;-82
2022/06/16 05:46:58;;;;;;;10.45;5.10;;;19.90;99.90;;;;;;20993865;28;20032;-82
2022/06/16 05:57:03;;;;;;;14.98;5.75;;;20.30;99.90;;;;;;20974438;28;20523;-82
2022/06/16 06:07:05;;;;;;;8.43;4.95;;;20.50;99.90;;;;;;20991246;28;20044;-82
2022/06/16 06:17:06;;;;;;;12.00;5.10;;;20.90;99.90;;;;;;20989912;28;20036;-82
2022/06/16 06:27:14;;;;;;;10.65;5.10;;;21.00;99.90;;;;;;20920332;28;20041;-82
2022/06/16 06:37:17;;;;;;;16.13;5.82;;;21.20;99.90;;;;;;20910408;28;20043;-82
2022/06/16 06:47:31;;;;;;;12.65;5.88;;;21.60;99.90;;;;;;20892564;28;20040;-83
2022/06/16 06:57:32;;;;;;;11.23;5.57;;;22.10;99.90;;;;;;20915945;28;20045;-82
2022/06/16 07:07:36;;;;;;;10.33;5.33;;;22.80;99.90;;;;;;21021180;28;20115;-81
2022/06/16 07:17:37;;;;;;;13.63;6.35;;;22.80;99.90;;;;;;20920495;28;20041;-83
2022/06/16 07:27:38;;;;;;;17.80;5.68;;;22.90;99.90;;;;;;20892622;28;20041;-82
2022/06/16 07:37:38;;;;;;;13.60;5.93;;;23.60;99.90;;;;;;20905397;28;20033;-81
2022/06/16 07:47:40;;;;;;;15.20;5.63;;;23.70;99.90;;;;;;20983230;28;20097;-82
2022/06/16 07:57:42;;;;;;;;;;;24.00;99.90;;;;;;20971046;28;20040;-82
2022/06/16 08:07:43;;;;;;;14.15;3.28;;;24.80;99.90;;;;;;20930954;28;20013;-81
2022/06/16 08:17:48;;;;;;;9.70;3.53;;;25.70;99.90;;;;;;20985847;28;20512;-82
2022/06/16 08:27:52;;;;;;;8.80;3.33;;;26.10;99.90;;;;;;20999155;28;20063;-82
2022/06/16 08:37:53;;;;;;;6.22;3.10;;;26.90;99.90;;;;;;21028221;28;20404;-82
2022/06/16 08:48:14;;;;;;;7.65;3.28;;;27.30;99.90;;;;;;21076496;28;20127;-82
2022/06/16 08:58:53;;;;;;;10.40;3.35;;;27.60;99.90;;;;;;21076778;28;20044;-83
2022/06/16 09:10:14;;;;;;;10.38;3.50;;;27.80;99.90;;;;;;21033197;28;20058;-82
2022/06/16 09:19:59;;;;;;;8.70;3.72;;;28.80;99.90;;;;;;21090633;28;20055;-82
2022/06/16 09:30:16;;;;;;;10.63;3.25;;;28.80;99.90;;;;;;21090969;28;20489;-82
2022/06/16 09:40:27;;;;;;;10.32;3.67;;;28.70;99.90;;;;;;21088496;28;20036;-82
2022/06/16 09:50:40;;;;;;;15.90;3.90;;;29.20;99.90;;;;;;21092732;28;20054;-83
2022/06/16 10:00:43;;;;;;;8.68;3.40;;;29.00;99.90;;;;;;21090407;28;20040;-82
2022/06/16 10:10:50;;;;;;;6.90;2.60;;;29.70;99.90;;;;;;21088150;28;20477;-81
2022/06/16 10:20:51;;;;;;;9.15;2.67;;;29.70;99.90;;;;;;21092264;28;20036;-81
2022/06/16 10:30:53;;;;;;;5.20;1.90;;;30.00;99.90;;;;;;21088180;28;20098;-82
2022/06/16 10:40:55;;;;;;;6.20;2.30;;;30.70;99.90;;;;;;21084323;28;20515;-82
2022/06/16 10:51:04;;;;;;;7.78;1.80;;;31.20;99.90;;;;;;21083840;28;20078;-82
2022/06/16 11:01:40;;;;;;;8.27;2.20;;;31.00;99.90;;;;;;21085675;28;20068;-81
2022/06/16 11:11:52;;;;;;;3.75;2.38;;;30.90;99.90;;;;;;21084213;28;20040;-83
2022/06/16 11:21:54;;;;;;;4.45;1.95;;;31.50;99.90;;;;;;21067274;28;20497;-82
2022/06/16 11:32:06;;;;;;;6.60;2.40;;;31.80;99.90;;;;;;21086842;28;20035;-82
2022/06/16 11:42:45;;;;;;;4.95;2.42;;;30.80;99.90;;;;;;21012500;28;20043;-82
2022/06/16 11:53:13;;;;;;;3.47;2.08;;;31.20;99.90;;;;;;20915345;28;20037;-83
2022/06/16 12:03:35;;;;;;;7.38;2.30;;;31.50;99.90;;;;;;20957814;28;20101;-83
2022/06/16 12:14:09;;;;;;;9.35;2.67;;;31.30;99.90;;;;;;20945358;28;20037;-82
2022/06/16 12:24:44;;;;;;;6.10;2.05;;;31.50;99.90;;;;;;20973260;28;20037;-82
2022/06/16 12:35:22;;;;;;;3.15;2.28;;;31.40;99.90;;;;;;20976182;28;20174;-82
2022/06/16 12:45:37;;;;;;;12.23;2.92;;;31.10;99.90;;;;;;20950640;28;20049;-82
2022/06/16 12:55:47;;;;;;;4.22;2.58;;;31.90;99.90;;;;;;20927941;28;20047;-82
2022/06/16 13:05:50;;;;;;;6.53;3.10;;;32.00;99.90;;;;;;20966214;28;20032;-83
2022/06/16 13:15:55;;;;;;;5.90;2.55;;;32.80;99.90;;;;;;21006648;28;20036;-82
2022/06/16 13:26:28;;;;;;;5.50;2.00;;;32.60;99.90;;;;;;21005962;28;20040;-83
2022/06/16 13:36:31;;;;;;;5.88;2.65;;;32.30;99.90;;;;;;21005252;28;20068;-82
2022/06/16 13:46:51;;;;;;;6.97;2.53;;;30.10;99.90;;;;;;21003587;28;20152;-82
2022/06/16 13:56:52;;;;;;;6.57;2.55;;;30.50;99.90;;;;;;21003737;28;20040;-82
2022/06/16 14:07:05;;;;;;;6.63;2.20;;;31.10;99.90;;;;;;20985863;28;20403;-82
2022/06/16 14:17:33;;;;;;;6.20;2.42;;;30.50;99.90;;;;;;20986534;28;20057;-82
2022/06/16 14:27:54;;;;;;;11.60;2.72;;;30.70;99.90;;;;;;20997753;28;20098;-83
2022/06/16 14:38:14;;;;;;;14.50;2.33;;;31.30;99.90;;;;;;20981352;28;20036;-84
2022/06/16 14:48:36;;;;;;;7.23;2.17;;;32.20;99.90;;;;;;20998158;28;20040;-84
2022/06/16 14:58:47;;;;;;;6.68;2.17;;;31.60;99.90;;;;;;20999164;28;20718;-83
2022/06/16 15:08:55;;;;;;;7.60;2.03;;;31.50;99.80;;;;;;20979866;28;20086;-84
2022/06/16 15:18:58;;;;;;;4.18;1.95;;;31.70;99.30;;;;;;20977881;28;20047;-84
2022/06/16 15:29:08;;;;;;;9.40;2.33;;;31.90;99.50;;;;;;20972274;28;20032;-85
2022/06/16 15:39:10;;;;;;;;;;;30.90;99.90;;;;;;20990717;28;20048;-85
2022/06/16 15:49:27;;;;;;;8.52;2.00;;;30.60;99.90;;;;;;20991777;28;20412;-84
2022/06/16 15:59:45;;;;;;;7.40;2.03;;;30.80;98.70;;;;;;21009077;28;20051;-84
2022/06/16 16:09:46;;;;;;;2.97;2.15;;;30.80;98.20;;;;;;21011268;28;20044;-86
2022/06/16 16:19:59;;;;;;;8.30;2.40;;;30.60;98.50;;;;;;21006333;28;20036;-84
2022/06/16 16:29:59;;;;;;;3.22;2.10;;;30.40;98.20;;;;;;20990352;28;20127;-84
2022/06/16 16:40:18;;;;;;;4.25;2.88;;;30.40;99.80;;;;;;21008408;28;20090;-84
2022/06/16 16:50:20;;;;;;;5.45;2.47;;;30.40;98.50;;;;;;20989597;28;20056;-85
2022/06/16 17:00:22;;;;;;;5.88;2.83;;;30.20;98.30;;;;;;21000074;28;20112;-87
2022/06/16 17:10:24;;;;;;;4.93;2.40;;;30.10;97.80;;;;;;20980150;28;20047;-86
2022/06/16 17:20:25;;;;;;;6.05;2.22;;;30.10;97.70;;;;;;20973955;28;20049;-85
2022/06/16 17:30:28;;;;;;;7.05;2.08;;;29.90;98.20;;;;;;21008527;28;20100;-85
2022/06/16 17:40:29;;;;;;;2.95;2.05;;;29.80;97.70;;;;;;20992775;28;20041;-85
2022/06/16 17:50:30;;;;;;;4.13;2.28;;;29.50;98.60;;;;;;20985422;28;20043;-83
2022/06/16 18:00:31;;;;;;;7.45;2.10;;;29.30;98.70;;;;;;20995624;28;20036;-85
2022/06/16 18:10:34;;;;;;;7.72;2.40;;;29.60;98.70;;;;;;21017266;28;20043;-83
2022/06/16 18:20:36;;;;;;;9.35;2.88;;;28.70;98.80;;;;;;21000749;28;20402;-83
2022/06/16 18:30:37;;;;;;;8.13;2.50;;;29.00;98.80;;;;;;21016454;28;20041;-83
2022/06/16 18:40:42;;;;;;;4.65;2.50;;;28.60;98.40;;;;;;20986548;28;20040;-82
2022/06/16 18:50:43;;;;;;;4.97;2.30;;;27.80;99.30;;;;;;20924610;28;20071;-81
2022/06/16 19:00:45;;;;;;;14.10;2.83;;;26.50;99.90;;;;;;20917874;28;20033;-83
2022/06/16 19:10:47;;;;;;;7.95;2.78;;;26.00;99.90;;;;;;20933198;28;20037;-81
2022/06/16 19:20:50;;;;;;;7.22;2.60;;;25.80;99.90;;;;;;20911866;28;20047;-80
2022/06/16 19:30:51;;;;;;;7.00;4.03;;;25.70;99.90;;;;;;20902459;28;20401;-82
2022/06/16 19:40:53;;;;;;;7.28;2.95;;;25.40;99.90;;;;;;20934276;28;20067;-83
2022/06/16 19:50:55;;;;;;;5.05;2.58;;;24.90;99.90;;;;;;21004285;28;20049;-84
2022/06/16 20:00:57;;;;;;;6.65;2.63;;;24.30;99.90;;;;;;21002221;28;20037;-82
2022/06/16 20:10:58;;;;;;;6.47;2.75;;;23.20;99.90;;;;;;21012576;28;20066;-83
2022/06/16 20:21:03;;;;;;;6.32;2.70;;;22.80;99.90;;;;;;20982565;23;1177994;-77
2022/06/16 20:31:04;;;;;;;7.93;2.92;;;22.60;99.90;;;;;;21094718;28;20477;-77
2022/06/16 20:42:12;;;;;;;8.25;3.42;;;22.60;99.90;;;;;;21136493;28;20036;-79
2022/06/16 20:51:30;;;;;;;6.55;2.80;;;21.90;99.90;;;;;;21172156;28;20050;-79
2022/06/16 21:22:27;;;;;;;5.32;3.40;;;21.00;99.90;;;;;;21181883;28;20130;-78
2022/06/16 21:32:28;;;;;;;4.93;3.55;;;20.40;99.90;;;;;;21138587;28;20036;-79
2022/06/16 21:42:31;;;;;;;8.03;3.17;;;20.70;99.90;;;;;;21095385;28;20036;-79
2022/06/16 21:52:34;;;;;;;5.95;3.05;;;20.20;99.90;;;;;;21110234;28;20417;-79
2022/06/16 22:02:35;;;;;;;4.13;2.80;;;20.30;99.90;;;;;;21092158;28;20035;-78
2022/06/16 22:12:36;;;;;;;7.70;3.17;;;19.90;99.90;;;;;;21083303;28;20044;-79
2022/06/16 22:22:37;;;;;;;4.83;2.80;;;19.90;99.90;;;;;;21050161;28;20040;-79
2022/06/16 22:32:38;;;;;;;4.27;3.30;;;19.80;99.90;;;;;;21049037;28;20173;-76
2022/06/16 22:42:39;;;;;;;6.73;2.60;;;19.40;99.90;;;;;;21076916;28;20040;-78
2022/06/16 22:52:39;;;;;;;5.00;3.10;;;19.60;99.90;;;;;;21051915;28;20040;-77
2022/06/16 23:02:40;;;;;;;10.10;3.23;;;19.10;99.90;;;;;;21037775;28;20046;-77
2022/06/16 23:12:41;;;;;;;7.73;2.67;;;18.80;99.90;;;;;;21054665;28;20126;-77
2022/06/16 23:22:43;;;;;;;4.67;2.97;;;18.30;99.90;;;;;;21054899;28;20075;-77
2022/06/16 23:32:43;;;;;;;;;;;18.30;99.90;;;;;;20993094;28;20063;-77
2022/06/16 23:42:48;;;;;;;7.63;3.13;;;17.90;99.90;;;;;;21053033;28;19911;-77
2022/06/16 23:52:48;;;;;;;9.38;3.38;;;17.90;99.90;;;;;;21017211;28;20036;-78
